Time;durP1;ratioP1;P1;durP2;ratioP2;P2;SDS_P1;SDS_P2;PMS_P1;PMS_P2;Temp;Humidity;BMP_temperature;BMP_pressure;BME280_temperature;BME280_humidity;BME280_pressure;Samples;Min_cycle;Max_cycle;Signal;HPM_P1;HPM_P2
2023/08/24 00:00:16;;;;;;;2.00;1.90;;;18.90;99.90;;;;;;5267507;28;20256;-45
2023/08/24 00:02:47;;;;;;;3.27;2.63;;;18.90;99.90;;;;;;5265196;28;20557;-45
2023/08/24 00:05:18;;;;;;;2.90;2.70;;;18.90;99.90;;;;;;5269669;28;20170;-45
2023/08/24 00:07:49;;;;;;;2.07;1.97;;;18.80;99.90;;;;;;5263005;28;20174;-44
2023/08/24 00:10:19;;;;;;;7.57;2.90;;;18.80;99.90;;;;;;5267416;28;20178;-45
2023/08/24 00:12:50;;;;;;;5.10;2.53;;;18.80;99.90;;;;;;5264435;28;20204;-45
2023/08/24 00:15:21;;;;;;;2.93;2.70;;;18.80;99.90;;;;;;5265551;28;20265;-46
2023/08/24 00:17:52;;;;;;;2.73;2.33;;;18.80;99.90;;;;;;5266191;28;20739;-45
2023/08/24 00:20:23;;;;;;;1.87;1.77;;;18.80;99.90;;;;;;5268999;28;20208;-45
2023/08/24 00:22:53;;;;;;;2.43;2.00;;;18.70;99.90;;;;;;5267922;28;20289;-45
2023/08/24 00:25:25;;;;;;;2.50;2.40;;;18.70;99.90;;;;;;5267654;28;20950;-45
2023/08/24 00:27:56;;;;;;;2.83;2.63;;;18.70;99.90;;;;;;5267789;28;20213;-45
2023/08/24 00:30:27;;;;;;;10.87;7.67;;;18.60;99.90;;;;;;5273380;28;20431;-46
2023/08/24 00:32:58;;;;;;;7.70;4.33;;;18.60;99.90;;;;;;5265463;28;20459;-45
2023/08/24 00:35:28;;;;;;;3.57;3.20;;;18.60;99.90;;;;;;5271728;28;20246;-45
2023/08/24 00:37:59;;;;;;;2.90;2.80;;;18.60;99.90;;;;;;5271631;28;20205;-45
2023/08/24 00:40:30;;;;;;;3.53;2.77;;;18.60;99.90;;;;;;5274021;28;20260;-45
2023/08/24 00:43:01;;;;;;;2.60;2.40;;;18.60;99.90;;;;;;5270884;28;21080;-45
2023/08/24 00:45:33;;;;;;;3.67;2.97;;;18.50;99.90;;;;;;5271816;28;20220;-45
2023/08/24 00:48:04;;;;;;;3.40;3.20;;;18.50;99.90;;;;;;5274051;28;20671;-44
2023/08/24 00:50:35;;;;;;;2.50;2.40;;;18.50;99.90;;;;;;5270516;28;20461;-44
2023/08/24 00:53:07;;;;;;;3.50;3.20;;;18.50;99.90;;;;;;5269809;28;20932;-45
2023/08/24 00:55:38;;;;;;;2.70;2.27;;;18.50;99.90;;;;;;5274742;28;20643;-45
2023/08/24 00:58:10;;;;;;;5.30;3.33;;;18.50;99.90;;;;;;5271526;28;20452;-45
2023/08/24 01:00:41;;;;;;;3.63;3.17;;;18.50;99.90;;;;;;5267380;28;20955;-45
2023/08/24 01:03:12;;;;;;;3.73;3.40;;;18.50;99.90;;;;;;5270141;28;20428;-46
2023/08/24 01:05:43;;;;;;;4.90;2.63;;;18.40;99.90;;;;;;5271723;28;20427;-45
2023/08/24 01:08:14;;;;;;;3.10;2.90;;;18.40;99.90;;;;;;5272678;28;20188;-45
2023/08/24 01:11:12;;;;;;;6.93;3.73;;;18.40;99.90;;;;;;5274497;28;20435;-45
2023/08/24 01:13:50;;;;;;;2.80;2.70;;;18.40;99.90;;;;;;5271185;28;20185;-45
2023/08/24 01:16:27;;;;;;;5.10;4.50;;;18.50;99.90;;;;;;5249084;28;20541;-45
2023/08/24 01:18:59;;;;;;;3.83;3.60;;;18.60;99.90;;;;;;5278191;28;20462;-45
2023/08/24 01:21:31;;;;;;;3.83;3.53;;;18.70;99.90;;;;;;5272080;28;20456;-45
2023/08/24 01:24:14;;;;;;;9.50;4.13;;;18.80;99.90;;;;;;5264720;28;20942;-45
2023/08/24 01:26:48;;;;;;;4.63;4.23;;;18.80;99.90;;;;;;5274087;28;20426;-44
2023/08/24 01:29:19;;;;;;;5.13;4.60;;;18.80;99.90;;;;;;5268432;28;20510;-45
2023/08/24 01:31:50;;;;;;;5.73;4.13;;;18.90;99.90;;;;;;5255340;28;20475;-45
2023/08/24 01:34:22;;;;;;;10.97;4.70;;;18.90;99.90;;;;;;5272720;28;20962;-45
2023/08/24 01:36:53;;;;;;;5.90;4.20;;;18.90;99.90;;;;;;5273684;28;20251;-45
2023/08/24 01:39:43;;;;;;;6.97;4.90;;;18.90;99.90;;;;;;5266899;28;20460;-45
2023/08/24 01:42:20;;;;;;;7.77;5.37;;;18.90;99.90;;;;;;5266894;28;20296;-46
2023/08/24 01:44:58;;;;;;;7.13;4.63;;;18.90;99.90;;;;;;5265417;28;20419;-45
2023/08/24 01:47:30;;;;;;;6.20;4.23;;;19.00;99.90;;;;;;5269119;28;20427;-45
2023/08/24 01:50:02;;;;;;;5.60;3.90;;;19.00;99.90;;;;;;5252865;28;20435;-45
2023/08/24 01:52:34;;;;;;;4.57;3.83;;;19.10;99.90;;;;;;5267973;28;20493;-46
2023/08/24 01:55:05;;;;;;;3.33;3.13;;;19.10;99.90;;;;;;5270341;28;20427;-45
2023/08/24 01:57:36;;;;;;;4.57;3.40;;;19.20;99.90;;;;;;5265881;28;20510;-45
2023/08/24 02:00:07;;;;;;;4.93;4.10;;;19.20;99.90;;;;;;5269085;28;20574;-45
2023/08/24 02:02:38;;;;;;;4.67;3.83;;;19.20;99.90;;;;;;5266418;28;20202;-46
2023/08/24 02:05:09;;;;;;;5.10;4.37;;;19.20;99.90;;;;;;5268757;28;20443;-45
2023/08/24 02:07:42;;;;;;;7.60;3.43;;;19.30;99.90;;;;;;5265512;28;20173;-45
2023/08/24 02:10:13;;;;;;;4.13;3.20;;;19.30;99.90;;;;;;5269772;28;20177;-46
2023/08/24 02:12:44;;;;;;;4.87;3.47;;;19.30;99.90;;;;;;5267943;28;20939;-46
2023/08/24 02:15:14;;;;;;;4.80;3.60;;;19.20;99.90;;;;;;5269082;28;20174;-45
2023/08/24 02:17:45;;;;;;;4.50;4.20;;;19.20;99.90;;;;;;5273431;28;20195;-46
2023/08/24 02:20:16;;;;;;;3.93;3.53;;;19.30;99.90;;;;;;5270124;28;20173;-45
2023/08/24 02:22:46;;;;;;;6.00;4.40;;;19.30;99.90;;;;;;5268924;28;20194;-45
2023/08/24 02:25:17;;;;;;;4.83;4.27;;;19.20;99.90;;;;;;5271364;28;20201;-46
2023/08/24 02:27:49;;;;;;;4.17;3.90;;;19.30;99.90;;;;;;5271197;28;20241;-45
2023/08/24 02:30:19;;;;;;;5.87;3.90;;;19.40;99.90;;;;;;5266534;28;20452;-46
2023/08/24 02:32:50;;;;;;;4.30;3.90;;;19.40;99.90;;;;;;5269197;28;20202;-44
2023/08/24 02:35:21;;;;;;;4.90;4.37;;;19.40;99.90;;;;;;5267928;28;20725;-44
2023/08/24 02:37:54;;;;;;;7.83;4.50;;;19.40;99.90;;;;;;5268044;28;20467;-44
2023/08/24 02:40:25;;;;;;;3.80;3.50;;;19.50;99.90;;;;;;5270552;28;20253;-44
2023/08/24 02:42:56;;;;;;;9.40;4.33;;;19.50;99.90;;;;;;5266921;28;20587;-45
2023/08/24 02:45:27;;;;;;;5.60;4.07;;;19.50;99.90;;;;;;5266282;28;20190;-45
2023/08/24 02:47:57;;;;;;;4.90;4.40;;;19.60;99.90;;;;;;5266325;28;20189;-45
2023/08/24 02:50:28;;;;;;;7.30;4.30;;;19.60;99.90;;;;;;5269003;28;20647;-45
2023/08/24 02:53:01;;;;;;;3.97;3.70;;;19.60;99.90;;;;;;5268805;28;20217;-46
2023/08/24 02:55:32;;;;;;;11.33;3.97;;;19.60;99.90;;;;;;5269732;28;20458;-45
2023/08/24 02:58:03;;;;;;;3.93;3.60;;;19.60;99.90;;;;;;5267973;28;20530;-45
2023/08/24 03:00:34;;;;;;;4.13;3.60;;;19.60;99.90;;;;;;5265805;28;20503;-44
2023/08/24 03:03:07;;;;;;;4.00;3.70;;;19.60;99.90;;;;;;5273004;28;20181;-44
2023/08/24 03:05:38;;;;;;;6.03;3.90;;;19.60;99.90;;;;;;5270017;28;20701;-44
2023/08/24 03:08:09;;;;;;;8.63;4.23;;;19.70;99.90;;;;;;5270710;28;20475;-44
2023/08/24 03:10:39;;;;;;;5.07;3.90;;;19.60;99.90;;;;;;5268276;28;20193;-45
2023/08/24 03:13:10;;;;;;;3.90;3.53;;;19.60;99.90;;;;;;5270086;28;20281;-45
2023/08/24 03:15:41;;;;;;;5.83;3.80;;;19.60;99.90;;;;;;5270564;28;20177;-45
2023/08/24 03:18:13;;;;;;;4.57;3.50;;;19.60;99.90;;;;;;5273320;28;20198;-45
2023/08/24 03:20:47;;;;;;;4.20;3.83;;;19.60;99.90;;;;;;5275705;28;20177;-45
2023/08/24 03:23:18;;;;;;;4.70;2.60;;;19.60;99.90;;;;;;5251941;28;20457;-45
2023/08/24 03:25:49;;;;;;;3.30;3.00;;;19.70;99.90;;;;;;5268318;28;20436;-45
2023/08/24 03:28:20;;;;;;;3.07;2.60;;;19.70;99.90;;;;;;5267211;28;20561;-45
2023/08/24 03:30:52;;;;;;;2.87;2.70;;;19.70;99.90;;;;;;5265658;28;20178;-45
2023/08/24 03:33:23;;;;;;;3.30;3.10;;;19.80;99.90;;;;;;5266509;28;20626;-44
2023/08/24 03:35:54;;;;;;;6.13;3.00;;;19.90;99.90;;;;;;5251158;28;20522;-45
2023/08/24 03:38:24;;;;;;;2.80;2.60;;;19.90;99.90;;;;;;5268280;28;20669;-46
2023/08/24 03:41:05;;;;;;;2.40;2.30;;;19.80;99.90;;;;;;5266738;28;20201;-45
2023/08/24 03:43:37;;;;;;;6.67;3.30;;;19.80;99.90;;;;;;5266242;28;20178;-46
2023/08/24 03:46:07;;;;;;;6.13;2.90;;;19.80;99.90;;;;;;5265867;28;20447;-46
2023/08/24 03:48:38;;;;;;;3.33;3.00;;;19.80;99.90;;;;;;5265601;28;20443;-46
2023/08/24 03:51:09;;;;;;;6.00;3.60;;;19.70;99.90;;;;;;5266207;28;20205;-45
2023/08/24 03:53:39;;;;;;;5.87;3.03;;;19.70;99.90;;;;;;5267564;28;20246;-44
2023/08/24 03:56:10;;;;;;;4.53;2.83;;;19.70;99.90;;;;;;5259922;28;20185;-45
2023/08/24 03:58:41;;;;;;;3.80;2.63;;;19.70;99.90;;;;;;5262525;28;20326;-45
2023/08/24 04:01:12;;;;;;;4.00;2.63;;;19.80;99.90;;;;;;5266889;28;20246;-45
2023/08/24 04:03:42;;;;;;;23.10;4.27;;;19.80;99.90;;;;;;5264931;28;20240;-45
2023/08/24 04:06:13;;;;;;;4.77;3.00;;;19.80;99.90;;;;;;5266271;28;20174;-45
2023/08/24 04:08:44;;;;;;;3.43;2.60;;;19.70;99.90;;;;;;5262539;28;20243;-45
2023/08/24 04:11:15;;;;;;;3.27;3.00;;;19.70;99.90;;;;;;5266037;28;20232;-44
2023/08/24 04:13:46;;;;;;;2.40;2.30;;;19.70;99.90;;;;;;5262055;28;20191;-44
2023/08/24 04:16:16;;;;;;;4.63;2.47;;;19.80;99.90;;;;;;5266555;28;20185;-44
2023/08/24 04:18:47;;;;;;;4.20;2.37;;;19.80;99.90;;;;;;5266618;28;20474;-46
2023/08/24 04:21:18;;;;;;;2.80;2.40;;;19.70;99.90;;;;;;5251457;28;20205;-45
2023/08/24 04:23:48;;;;;;;3.03;2.80;;;19.80;99.90;;;;;;5261693;28;20170;-46
2023/08/24 04:26:19;;;;;;;2.10;2.00;;;19.80;99.90;;;;;;5265537;28;20181;-45
2023/08/24 04:28:50;;;;;;;3.70;2.93;;;19.90;99.90;;;;;;5265810;28;20288;-45
2023/08/24 04:31:21;;;;;;;6.33;2.90;;;19.90;99.90;;;;;;5263949;28;20205;-45
2023/08/24 04:33:51;;;;;;;1.97;1.80;;;19.90;99.90;;;;;;5265656;28;20193;-45
2023/08/24 04:36:22;;;;;;;6.10;2.43;;;20.00;99.90;;;;;;5266129;28;20184;-46
2023/08/24 04:38:53;;;;;;;1.93;1.83;;;20.10;99.90;;;;;;5267358;28;20221;-45
2023/08/24 04:41:23;;;;;;;2.43;2.30;;;20.00;99.90;;;;;;5264777;28;20193;-45
2023/08/24 04:43:54;;;;;;;2.20;2.10;;;20.10;99.90;;;;;;5260474;28;20185;-45
2023/08/24 04:46:26;;;;;;;2.20;2.00;;;20.10;99.90;;;;;;5266825;28;20703;-45
2023/08/24 04:48:56;;;;;;;2.43;1.93;;;20.20;99.90;;;;;;5264567;28;20460;-45
2023/08/24 04:51:29;;;;;;;2.17;2.07;;;20.30;99.90;;;;;;5265528;28;20443;-45
2023/08/24 04:54:00;;;;;;;3.67;2.33;;;20.30;99.90;;;;;;5266083;28;20595;-45
2023/08/24 04:56:31;;;;;;;2.20;2.10;;;20.50;99.90;;;;;;5264308;28;20437;-44
2023/08/24 04:59:02;;;;;;;2.53;2.33;;;20.50;99.90;;;;;;5264396;28;20209;-45
2023/08/24 05:01:33;;;;;;;2.20;1.87;;;20.60;99.90;;;;;;5266448;28;20261;-44
2023/08/24 05:04:04;;;;;;;2.93;2.40;;;20.70;99.90;;;;;;5250645;28;20975;-45
2023/08/24 05:06:35;;;;;;;3.03;1.90;;;20.90;99.90;;;;;;5249405;28;20424;-45
2023/08/24 05:09:05;;;;;;;1.87;1.77;;;20.90;99.90;;;;;;5268249;28;20189;-48
2023/08/24 05:11:36;;;;;;;4.33;2.40;;;20.90;99.90;;;;;;5264031;28;20202;-46
2023/08/24 05:14:07;;;;;;;2.40;2.20;;;21.00;99.90;;;;;;5267899;28;20527;-45
2023/08/24 05:16:37;;;;;;;3.60;1.80;;;21.30;99.90;;;;;;5266214;28;20604;-46
2023/08/24 05:19:08;;;;;;;3.67;1.90;;;21.50;99.90;;;;;;5270225;28;20255;-45
2023/08/24 05:21:39;;;;;;;3.87;3.10;;;21.90;99.90;;;;;;5268600;28;20685;-47
2023/08/24 05:24:10;;;;;;;2.37;2.20;;;22.20;99.90;;;;;;5273423;28;20522;-45
2023/08/24 05:26:40;;;;;;;2.03;1.93;;;22.30;99.90;;;;;;5270074;28;20233;-46
2023/08/24 05:29:11;;;;;;;4.57;1.80;;;22.40;99.90;;;;;;5270030;28;20181;-45
2023/08/24 05:31:42;;;;;;;10.80;2.03;;;22.70;99.90;;;;;;5270527;28;20693;-45
2023/08/24 05:34:12;;;;;;;2.80;1.90;;;23.40;98.50;;;;;;5265755;28;20212;-45
2023/08/24 05:36:43;;;;;;;2.30;1.80;;;24.50;97.80;;;;;;5270041;28;20184;-45
2023/08/24 05:39:14;;;;;;;2.77;1.70;;;26.90;91.50;;;;;;5265595;28;20201;-45
2023/08/24 05:41:44;;;;;;;11.17;2.23;;;28.20;80.00;;;;;;5255243;28;20232;-45
2023/08/24 05:44:16;;;;;;;1.67;1.57;;;28.50;71.50;;;;;;5270056;28;20205;-45
2023/08/24 05:46:47;;;;;;;2.67;1.60;;;28.20;67.40;;;;;;5268673;28;20538;-46
2023/08/24 05:49:18;;;;;;;2.30;1.70;;;27.70;67.00;;;;;;5268686;28;20440;-46
2023/08/24 05:51:51;;;;;;;1.70;1.60;;;27.30;67.40;;;;;;5268548;28;20262;-46
2023/08/24 05:54:22;;;;;;;3.17;2.53;;;27.80;66.80;;;;;;5270645;28;20181;-45
2023/08/24 05:56:52;;;;;;;5.43;2.40;;;30.10;60.40;;;;;;5266657;28;20444;-47
2023/08/24 05:59:23;;;;;;;6.30;2.80;;;31.30;56.50;;;;;;5270892;28;20560;-46
2023/08/24 06:01:55;;;;;;;1.90;1.80;;;31.60;53.30;;;;;;5269263;28;20205;-46
2023/08/24 06:04:26;;;;;;;3.17;2.00;;;32.00;51.80;;;;;;5270110;28;20169;-45
2023/08/24 06:06:56;;;;;;;3.90;2.03;;;33.20;49.50;;;;;;5271109;28;20446;-46
2023/08/24 06:09:27;;;;;;;2.20;1.90;;;34.60;46.20;;;;;;5274179;28;20248;-46
2023/08/24 06:11:58;;;;;;;1.77;1.67;;;35.50;43.20;;;;;;5268311;28;20209;-46
2023/08/24 06:14:28;;;;;;;2.10;1.90;;;35.40;42.40;;;;;;5268792;28;20188;-46
2023/08/24 06:16:59;;;;;;;4.97;1.90;;;35.10;42.60;;;;;;5273588;28;20184;-46
2023/08/24 06:19:30;;;;;;;5.97;2.10;;;35.80;41.30;;;;;;5275644;28;20188;-46
2023/08/24 06:22:00;;;;;;;6.00;2.85;;;36.90;39.80;;;;;;5272371;28;20264;-46
2023/08/24 06:24:31;;;;;;;3.90;2.28;;;37.60;38.30;;;;;;5268316;28;20178;-46
2023/08/24 06:27:02;;;;;;;7.07;2.50;;;38.30;37.00;;;;;;5275203;28;20181;-46
2023/08/24 06:29:33;;;;;;;3.25;2.25;;;38.70;36.20;;;;;;5269283;28;20169;-46
2023/08/24 06:32:04;;;;;;;1.30;1.20;;;39.50;34.50;;;;;;5257729;28;20212;-47
2023/08/24 06:34:35;;;;;;;1.95;1.70;;;39.80;33.50;;;;;;5271073;28;20197;-47
2023/08/24 06:37:06;;;;;;;2.03;1.90;;;39.50;33.20;;;;;;5268957;28;20231;-47
2023/08/24 06:39:36;;;;;;;1.30;1.30;;;38.60;33.40;;;;;;5272944;28;20216;-46
2023/08/24 06:42:07;;;;;;;4.97;1.80;;;38.10;34.10;;;;;;5271075;28;20835;-47
2023/08/24 06:44:38;;;;;;;2.05;1.73;;;38.50;34.00;;;;;;5272050;28;20632;-47
2023/08/24 06:47:09;;;;;;;3.13;1.65;;;39.60;32.80;;;;;;5264604;28;20661;-46
2023/08/24 06:49:40;;;;;;;5.22;1.90;;;40.10;31.90;;;;;;5266391;28;20260;-47
2023/08/24 06:52:11;;;;;;;4.13;1.60;;;40.50;31.30;;;;;;5269587;28;20314;-47
2023/08/24 06:54:41;;;;;;;3.70;1.80;;;40.70;31.10;;;;;;5268019;28;20264;-47
2023/08/24 06:57:12;;;;;;;1.65;1.60;;;41.20;30.40;;;;;;5268216;28;20181;-46
2023/08/24 06:59:43;;;;;;;1.85;1.63;;;41.70;29.80;;;;;;5264915;28;20214;-46
2023/08/24 07:02:14;;;;;;;1.80;1.70;;;41.40;29.80;;;;;;5266924;28;20197;-46
2023/08/24 07:04:45;;;;;;;4.57;1.80;;;41.40;29.80;;;;;;5269480;28;20180;-47
2023/08/24 07:07:15;;;;;;;1.40;1.40;;;41.30;29.50;;;;;;5269826;28;20178;-47
2023/08/24 07:09:46;;;;;;;4.95;1.90;;;41.00;29.80;;;;;;5271533;28;20173;-47
2023/08/24 07:12:17;;;;;;;3.85;1.67;;;40.70;30.00;;;;;;5266313;28;20619;-46
2023/08/24 07:14:48;;;;;;;1.40;1.30;;;40.50;30.10;;;;;;5266825;28;20688;-48
2023/08/24 07:17:19;;;;;;;1.95;1.83;;;40.60;30.10;;;;;;5269873;28;20177;-47
2023/08/24 07:19:49;;;;;;;1.10;1.10;;;41.00;29.70;;;;;;5267027;28;20201;-47
2023/08/24 07:22:20;;;;;;;2.80;1.60;;;41.60;29.20;;;;;;5268705;28;20198;-47
2023/08/24 07:24:52;;;;;;;1.85;1.75;;;41.80;28.90;;;;;;5270408;28;20181;-47
2023/08/24 07:27:22;;;;;;;5.00;2.10;;;41.20;28.90;;;;;;5262003;28;20192;-47
2023/08/24 07:29:54;;;;;;;5.25;1.95;;;41.10;29.20;;;;;;5264731;28;20177;-47
2023/08/24 07:32:26;;;;;;;3.25;1.70;;;41.20;29.10;;;;;;5267287;28;20200;-47
2023/08/24 07:34:59;;;;;;;4.25;2.15;;;41.50;28.90;;;;;;5271645;28;20289;-46
2023/08/24 07:37:29;;;;;;;2.10;1.52;;;41.00;28.80;;;;;;5264023;28;20177;-46
2023/08/24 07:40:00;;;;;;;2.95;2.35;;;41.40;29.00;;;;;;5268948;28;20215;-47
2023/08/24 07:42:42;;;;;;;2.17;1.58;;;41.30;28.90;;;;;;5269517;28;20200;-46
2023/08/24 07:45:14;;;;;;;1.83;1.73;;;41.80;28.70;;;;;;5271241;28;20184;-47
2023/08/24 07:47:45;;;;;;;3.17;1.73;;;42.00;28.40;;;;;;5270643;28;20185;-47
2023/08/24 07:50:16;;;;;;;4.57;2.30;;;41.80;28.40;;;;;;5270776;28;20545;-47
2023/08/24 07:52:47;;;;;;;1.55;1.45;;;42.20;28.30;;;;;;5271043;28;20206;-47
2023/08/24 07:55:17;;;;;;;1.80;1.65;;;42.00;28.00;;;;;;5268052;28;20223;-46
2023/08/24 07:57:48;;;;;;;2.53;1.90;;;42.10;28.10;;;;;;5266092;28;20200;-46
2023/08/24 08:00:19;;;;;;;1.63;1.60;;;42.20;28.10;;;;;;5268824;28;20216;-47
2023/08/24 08:02:51;;;;;;;1.80;1.38;;;42.10;27.90;;;;;;5263309;28;20581;-47
2023/08/24 08:05:22;;;;;;;1.58;1.48;;;41.60;28.30;;;;;;5267889;28;20169;-47
2023/08/24 08:07:53;;;;;;;1.80;1.67;;;41.20;28.50;;;;;;5270132;28;20551;-47
2023/08/24 08:10:24;;;;;;;3.67;1.27;;;40.60;28.80;;;;;;5270502;28;20170;-47
2023/08/24 08:12:54;;;;;;;17.80;1.70;;;40.60;29.40;;;;;;5269519;28;20294;-47
2023/08/24 08:15:25;;;;;;;1.75;1.75;;;40.20;29.60;;;;;;5265851;28;20202;-47
2023/08/24 08:17:56;;;;;;;3.15;1.25;;;39.30;29.80;;;;;;5268063;28;20232;-46
2023/08/24 08:20:27;;;;;;;1.75;1.65;;;37.60;31.00;;;;;;5263155;28;20177;-47
2023/08/24 08:22:58;;;;;;;4.93;2.50;;;36.20;33.40;;;;;;5265172;28;20327;-46
2023/08/24 08:25:28;;;;;;;6.18;2.00;;;35.20;35.10;;;;;;5263930;28;20181;-46
2023/08/24 08:27:59;;;;;;;2.30;1.60;;;35.40;35.50;;;;;;5266508;28;20657;-47
2023/08/24 08:30:30;;;;;;;1.77;1.77;;;34.80;35.50;;;;;;5267536;28;20208;-47
2023/08/24 08:33:01;;;;;;;3.17;1.77;;;33.80;36.80;;;;;;5266882;28;20287;-47
2023/08/24 08:35:31;;;;;;;2.27;1.93;;;32.50;38.30;;;;;;5266807;28;20555;-46
2023/08/24 08:38:02;;;;;;;2.03;1.93;;;31.40;40.60;;;;;;5265431;28;20173;-46
2023/08/24 08:40:36;;;;;;;1.70;1.60;;;30.40;43.00;;;;;;5264297;28;20264;-47
2023/08/24 08:43:06;;;;;;;3.00;1.80;;;29.60;44.00;;;;;;5262916;28;20541;-46
2023/08/24 08:45:37;;;;;;;4.03;1.90;;;28.90;45.00;;;;;;5262067;28;20415;-47
2023/08/24 08:48:09;;;;;;;3.00;2.20;;;28.40;46.20;;;;;;5267091;28;20201;-45
2023/08/24 08:50:40;;;;;;;2.97;2.07;;;28.00;47.30;;;;;;5265558;28;20181;-46
2023/08/24 08:53:10;;;;;;;2.50;1.87;;;27.70;48.10;;;;;;5270522;28;20439;-46
2023/08/24 08:55:41;;;;;;;3.83;2.27;;;27.40;49.20;;;;;;5269487;28;20235;-46
2023/08/24 08:58:12;;;;;;;5.30;3.47;;;27.30;49.40;;;;;;5267154;28;20207;-47
2023/08/24 09:00:43;;;;;;;4.93;2.10;;;27.20;49.50;;;;;;5270978;28;20177;-46
2023/08/24 09:03:18;;;;;;;4.50;2.03;;;27.10;49.30;;;;;;5262054;28;20459;-47
2023/08/24 09:05:49;;;;;;;2.83;1.80;;;26.90;49.80;;;;;;5266851;28;20480;-47
2023/08/24 09:08:20;;;;;;;2.83;2.53;;;26.90;50.10;;;;;;5264610;28;20435;-46
2023/08/24 09:10:51;;;;;;;3.17;2.80;;;27.00;50.60;;;;;;5269625;28;21019;-46
2023/08/24 09:13:21;;;;;;;2.23;2.13;;;27.40;49.50;;;;;;5268286;28;20460;-45
2023/08/24 09:15:55;;;;;;;4.90;4.20;;;28.00;48.10;;;;;;5270431;28;20192;-46
2023/08/24 09:18:36;;;;;;;6.00;3.17;;;28.60;47.00;;;;;;5269959;28;20215;-47
2023/08/24 09:21:14;;;;;;;1.30;1.30;;;29.00;46.10;;;;;;5270882;28;20503;-47
2023/08/24 09:23:52;;;;;;;2.00;1.90;;;29.10;45.30;;;;;;5269762;28;20431;-46
2023/08/24 09:26:33;;;;;;;2.03;1.93;;;29.00;45.70;;;;;;5272075;28;20453;-46
2023/08/24 09:29:15;;;;;;;5.20;2.27;;;28.60;45.90;;;;;;5267823;28;20440;-47
2023/08/24 09:31:46;;;;;;;2.50;1.57;;;28.60;46.90;;;;;;5264935;28;20963;-46
2023/08/24 09:34:20;;;;;;;1.67;1.60;;;28.40;46.50;;;;;;5260985;28;20522;-47
2023/08/24 09:36:51;;;;;;;11.00;1.53;;;28.20;46.50;;;;;;5264692;28;20550;-46
2023/08/24 09:39:21;;;;;;;1.50;1.37;;;27.90;46.80;;;;;;5246119;28;20448;-46
2023/08/24 09:41:53;;;;;;;1.70;1.50;;;27.90;46.80;;;;;;5268025;28;20205;-47
2023/08/24 09:44:24;;;;;;;2.67;1.73;;;27.80;46.80;;;;;;5262757;28;20547;-46
2023/08/24 09:46:54;;;;;;;1.17;1.07;;;27.80;47.10;;;;;;5268010;28;20438;-47
2023/08/24 09:49:28;;;;;;;1.60;1.60;;;27.80;46.80;;;;;;5266222;28;20177;-47
2023/08/24 09:51:59;;;;;;;2.17;1.87;;;27.80;47.20;;;;;;5269190;28;20284;-48
2023/08/24 09:54:35;;;;;;;2.80;1.80;;;27.70;47.30;;;;;;5265272;28;20436;-47
2023/08/24 09:57:08;;;;;;;2.20;1.40;;;27.60;47.30;;;;;;5271816;28;20471;-46
2023/08/24 09:59:41;;;;;;;2.13;2.03;;;27.50;47.70;;;;;;5270520;28;21005;-47
2023/08/24 10:02:20;;;;;;;1.63;1.53;;;27.50;47.70;;;;;;5248792;28;20452;-46
2023/08/24 10:04:54;;;;;;;1.57;1.43;;;27.40;47.30;;;;;;5262010;28;20932;-46
2023/08/24 10:07:26;;;;;;;3.03;1.30;;;27.30;48.00;;;;;;5267208;28;20419;-46
2023/08/24 10:10:03;;;;;;;5.07;1.90;;;27.20;47.90;;;;;;5264670;28;20441;-47
2023/08/24 10:12:41;;;;;;;2.53;1.80;;;26.90;48.20;;;;;;5251530;28;20452;-47
2023/08/24 10:15:12;;;;;;;1.50;1.50;;;26.80;49.00;;;;;;5267577;28;20526;-47
2023/08/24 10:17:44;;;;;;;4.07;2.07;;;26.70;49.30;;;;;;5269492;28;20438;-46
2023/08/24 10:20:18;;;;;;;1.27;1.27;;;26.80;49.50;;;;;;5268388;28;20876;-46
2023/08/24 10:22:50;;;;;;;6.20;2.73;;;26.90;49.20;;;;;;5268115;28;20448;-47
2023/08/24 10:25:23;;;;;;;2.60;2.40;;;27.10;48.00;;;;;;5270105;28;20420;-47
2023/08/24 10:27:54;;;;;;;2.37;2.27;;;27.10;48.50;;;;;;5266838;28;20965;-46
2023/08/24 10:30:25;;;;;;;3.63;2.40;;;27.10;48.70;;;;;;5268749;28;20436;-47
2023/08/24 10:32:57;;;;;;;4.23;1.70;;;27.00;48.60;;;;;;5269243;28;20460;-48
2023/08/24 10:35:28;;;;;;;2.03;1.83;;;27.00;49.20;;;;;;5250345;28;20189;-46
2023/08/24 10:37:59;;;;;;;1.87;1.80;;;27.10;48.70;;;;;;5266634;28;20428;-54
2023/08/24 10:40:35;;;;;;;2.00;1.80;;;27.10;49.00;;;;;;5264619;28;20264;-46
2023/08/24 10:43:07;;;;;;;2.33;2.00;;;27.20;48.90;;;;;;5250906;28;20435;-47
2023/08/24 10:46:01;;;;;;;5.90;1.93;;;27.20;48.90;;;;;;5271600;28;20447;-46
2023/08/24 10:48:57;;;;;;;6.00;3.50;;;27.20;48.30;;;;;;5263096;28;20448;-46
2023/08/24 10:51:30;;;;;;;1.57;1.50;;;27.30;48.50;;;;;;5265601;28;20459;-47
2023/08/24 10:54:04;;;;;;;2.83;2.60;;;27.30;48.30;;;;;;5267398;28;20464;-45
2023/08/24 10:56:39;;;;;;;2.53;2.33;;;27.30;48.40;;;;;;5268640;28;20433;-46
2023/08/24 10:59:20;;;;;;;1.53;1.53;;;27.40;48.70;;;;;;5265939;28;20459;-46
2023/08/24 11:01:54;;;;;;;1.60;1.47;;;27.70;48.70;;;;;;5267702;28;20975;-45
2023/08/24 11:04:25;;;;;;;5.90;2.33;;;27.70;48.90;;;;;;5266863;28;20427;-46
2023/08/24 11:06:59;;;;;;;2.40;2.20;;;27.60;48.90;;;;;;5269014;28;20435;-47
2023/08/24 11:09:49;;;;;;;2.03;1.63;;;27.70;49.10;;;;;;5267388;28;21033;-46
2023/08/24 11:12:21;;;;;;;2.53;2.10;;;27.70;48.50;;;;;;5260776;28;20451;-46
2023/08/24 11:14:58;;;;;;;6.33;2.70;;;27.80;49.10;;;;;;5262351;28;20755;-46
2023/08/24 11:17:32;;;;;;;12.90;2.83;;;27.80;49.00;;;;;;5270896;28;20521;-47
2023/08/24 11:20:04;;;;;;;2.50;2.30;;;28.00;49.10;;;;;;5268256;28;20460;-48
2023/08/24 11:22:35;;;;;;;1.97;1.87;;;27.80;48.60;;;;;;5269788;28;20439;-46
2023/08/24 11:25:13;;;;;;;3.20;2.27;;;27.90;49.00;;;;;;5269071;28;20422;-46
2023/08/24 11:27:46;;;;;;;5.73;2.03;;;27.90;49.70;;;;;;5264904;28;20509;-46
2023/08/24 11:30:17;;;;;;;6.17;3.20;;;28.00;49.50;;;;;;5267216;28;20522;-46
2023/08/24 11:32:53;;;;;;;4.20;2.60;;;28.00;49.20;;;;;;5265272;28;20520;-46
2023/08/24 11:35:24;;;;;;;2.30;2.20;;;28.00;48.60;;;;;;5261242;28;20443;-46
2023/08/24 11:37:58;;;;;;;1.57;1.57;;;28.00;49.10;;;;;;5269083;28;20436;-46
2023/08/24 11:40:29;;;;;;;2.00;1.90;;;28.00;49.30;;;;;;5271440;28;20206;-47
2023/08/24 11:43:00;;;;;;;3.20;2.63;;;28.00;49.30;;;;;;5269544;28;20452;-47
2023/08/24 11:45:32;;;;;;;3.03;2.60;;;28.20;48.60;;;;;;5272429;28;20520;-47
2023/08/24 11:48:07;;;;;;;4.47;3.13;;;28.20;48.70;;;;;;5249666;28;20446;-47
2023/08/24 11:50:38;;;;;;;4.67;2.40;;;28.20;48.70;;;;;;5269299;28;20442;-45
2023/08/24 11:53:09;;;;;;;2.40;2.20;;;28.00;48.60;;;;;;5265446;28;20523;-46
2023/08/24 11:55:40;;;;;;;4.43;4.10;;;27.90;49.00;;;;;;5267759;28;20470;-46
2023/08/24 11:58:15;;;;;;;3.40;3.10;;;27.80;49.10;;;;;;5270486;28;20225;-47
2023/08/24 12:00:47;;;;;;;5.83;3.43;;;27.80;49.30;;;;;;5265581;28;20538;-45
2023/08/24 12:03:18;;;;;;;2.37;2.27;;;27.70;49.60;;;;;;5265043;28;20491;-47
2023/08/24 12:05:50;;;;;;;2.57;2.37;;;27.60;49.40;;;;;;5265223;28;20437;-47
2023/08/24 12:08:20;;;;;;;2.07;1.90;;;27.50;49.60;;;;;;5264747;28;20454;-47
2023/08/24 12:10:51;;;;;;;2.80;2.40;;;27.60;50.10;;;;;;5264614;28;20606;-46
2023/08/24 12:13:22;;;;;;;2.10;1.93;;;27.70;49.80;;;;;;5269255;28;20238;-46
2023/08/24 12:15:53;;;;;;;2.70;2.50;;;27.60;49.70;;;;;;5269722;28;20439;-46
2023/08/24 12:18:24;;;;;;;2.53;2.43;;;27.50;50.20;;;;;;5268222;28;20209;-46
2023/08/24 12:20:54;;;;;;;2.67;2.50;;;27.50;50.60;;;;;;5269140;28;21149;-46
2023/08/24 12:23:27;;;;;;;2.90;2.70;;;27.60;50.00;;;;;;5264721;28;20246;-46
2023/08/24 12:25:58;;;;;;;2.47;2.37;;;27.60;49.20;;;;;;5268135;28;20178;-46
2023/08/24 12:28:29;;;;;;;5.50;2.57;;;27.60;49.40;;;;;;5265138;28;20420;-47
2023/08/24 12:31:03;;;;;;;4.77;2.70;;;27.60;49.70;;;;;;5273315;28;20534;-46
2023/08/24 12:33:34;;;;;;;2.87;2.40;;;27.80;50.00;;;;;;5273484;28;20181;-46
2023/08/24 12:36:05;;;;;;;7.53;2.73;;;27.90;50.10;;;;;;5271331;28;21007;-45
2023/08/24 12:38:36;;;;;;;2.70;1.90;;;28.20;50.40;;;;;;5270019;28;20558;-44
2023/08/24 12:41:07;;;;;;;2.27;2.10;;;28.40;49.70;;;;;;5273130;28;20270;-46
2023/08/24 12:43:38;;;;;;;5.03;2.73;;;28.50;48.90;;;;;;5270876;28;21260;-47
2023/08/24 12:46:09;;;;;;;3.00;1.60;;;28.50;48.50;;;;;;5274786;28;20181;-46
2023/08/24 12:48:41;;;;;;;4.10;3.10;;;28.30;48.20;;;;;;5272710;28;20423;-45
2023/08/24 12:51:12;;;;;;;4.10;2.93;;;28.10;48.70;;;;;;5267436;28;20450;-45
2023/08/24 12:53:43;;;;;;;2.80;1.90;;;27.90;49.20;;;;;;5271190;28;20434;-47
2023/08/24 12:56:14;;;;;;;4.10;2.60;;;27.90;49.10;;;;;;5271189;28;20188;-44
2023/08/24 12:58:45;;;;;;;3.23;3.00;;;27.90;49.50;;;;;;5271303;28;20443;-45
2023/08/24 13:01:16;;;;;;;3.70;1.90;;;27.80;49.30;;;;;;5267961;28;20192;-46
2023/08/24 13:03:47;;;;;;;2.57;1.97;;;28.00;49.40;;;;;;5274606;28;20588;-47
2023/08/24 13:06:18;;;;;;;2.40;1.90;;;28.10;49.30;;;;;;5269058;28;20431;-48
2023/08/24 13:08:49;;;;;;;2.27;2.07;;;28.30;49.40;;;;;;5269329;28;20208;-47